sensor_id;sensor_type;location;lat;lon;timestamp;P1;durP1;ratioP1;P2;durP2;ratioP2
2055;SDS011;1033;52.560;13.374;2023-07-02T00:00:48;5.07;;;3.90;;
2055;SDS011;1033;52.560;13.374;2023-07-02T00:03:18;4.87;;;4.47;;
2055;SDS011;1033;52.560;13.374;2023-07-02T00:05:49;4.87;;;4.37;;
2055;SDS011;1033;52.560;13.374;2023-07-02T00:08:21;5.47;;;4.80;;
2055;SDS011;1033;52.560;13.374;2023-07-02T00:10:50;5.20;;;4.70;;
2055;SDS011;1033;52.560;13.374;2023-07-02T00:13:20;6.63;;;4.77;;
2055;SDS011;1033;52.560;13.374;2023-07-02T00:15:49;8.87;;;4.70;;
2055;SDS011;1033;52.560;13.374;2023-07-02T00:18:18;5.20;;;4.20;;
2055;SDS011;1033;52.560;13.374;2023-07-02T00:20:48;4.00;;;3.70;;
2055;SDS011;1033;52.560;13.374;2023-07-02T00:23:17;4.60;;;4.20;;
2055;SDS011;1033;52.560;13.374;2023-07-02T00:25:47;4.80;;;4.40;;
2055;SDS011;1033;52.560;13.374;2023-07-02T00:28:16;4.70;;;4.30;;
2055;SDS011;1033;52.560;13.374;2023-07-02T00:30:47;7.70;;;4.57;;
2055;SDS011;1033;52.560;13.374;2023-07-02T00:33:16;4.50;;;4.00;;
2055;SDS011;1033;52.560;13.374;2023-07-02T00:35:45;4.37;;;4.07;;
2055;SDS011;1033;52.560;13.374;2023-07-02T00:38:14;7.57;;;5.23;;
2055;SDS011;1033;52.560;13.374;2023-07-02T00:40:43;8.53;;;6.50;;
2055;SDS011;1033;52.560;13.374;2023-07-02T00:43:12;6.20;;;4.20;;
2055;SDS011;1033;52.560;13.374;2023-07-02T00:45:41;4.97;;;4.57;;
2055;SDS011;1033;52.560;13.374;2023-07-02T00:48:13;4.50;;;4.10;;
2055;SDS011;1033;52.560;13.374;2023-07-02T00:50:42;4.93;;;4.53;;
2055;SDS011;1033;52.560;13.374;2023-07-02T00:53:12;5.07;;;4.67;;
2055;SDS011;1033;52.560;13.374;2023-07-02T00:55:41;5.27;;;4.87;;
2055;SDS011;1033;52.560;13.374;2023-07-02T00:58:10;5.40;;;4.90;;
2055;SDS011;1033;52.560;13.374;2023-07-02T01:00:42;5.53;;;5.03;;
2055;SDS011;1033;52.560;13.374;2023-07-02T01:03:13;5.50;;;5.00;;
2055;SDS011;1033;52.560;13.374;2023-07-02T01:05:42;6.37;;;5.87;;
2055;SDS011;1033;52.560;13.374;2023-07-02T01:08:11;6.47;;;4.90;;
2055;SDS011;1033;52.560;13.374;2023-07-02T01:10:40;5.67;;;5.17;;
2055;SDS011;1033;52.560;13.374;2023-07-02T01:13:12;5.30;;;4.80;;
2055;SDS011;1033;52.560;13.374;2023-07-02T01:15:46;8.70;;;7.07;;
2055;SDS011;1033;52.560;13.374;2023-07-02T01:18:17;6.27;;;5.67;;
2055;SDS011;1033;52.560;13.374;2023-07-02T01:20:47;7.40;;;6.40;;
2055;SDS011;1033;52.560;13.374;2023-07-02T01:23:16;7.00;;;6.30;;
2055;SDS011;1033;52.560;13.374;2023-07-02T01:25:46;7.20;;;6.60;;
2055;SDS011;1033;52.560;13.374;2023-07-02T01:28:15;7.20;;;6.57;;
2055;SDS011;1033;52.560;13.374;2023-07-02T01:30:44;7.77;;;7.27;;
2055;SDS011;1033;52.560;13.374;2023-07-02T01:33:13;9.90;;;6.83;;
2055;SDS011;1033;52.560;13.374;2023-07-02T01:35:44;9.30;;;7.80;;
2055;SDS011;1033;52.560;13.374;2023-07-02T01:38:14;8.00;;;6.87;;
2055;SDS011;1033;52.560;13.374;2023-07-02T01:40:44;9.53;;;8.67;;
2055;SDS011;1033;52.560;13.374;2023-07-02T01:43:13;9.20;;;8.30;;
2055;SDS011;1033;52.560;13.374;2023-07-02T01:45:42;10.47;;;8.70;;
2055;SDS011;1033;52.560;13.374;2023-07-02T01:48:12;9.87;;;8.77;;
2055;SDS011;1033;52.560;13.374;2023-07-02T01:50:41;10.00;;;9.10;;
2055;SDS011;1033;52.560;13.374;2023-07-02T01:53:10;9.70;;;8.80;;
2055;SDS011;1033;52.560;13.374;2023-07-02T01:55:41;8.63;;;7.83;;
2055;SDS011;1033;52.560;13.374;2023-07-02T01:58:10;9.67;;;8.80;;
2055;SDS011;1033;52.560;13.374;2023-07-02T02:00:39;10.90;;;8.40;;
2055;SDS011;1033;52.560;13.374;2023-07-02T02:03:08;9.00;;;8.30;;
2055;SDS011;1033;52.560;13.374;2023-07-02T02:05:37;9.67;;;8.87;;
2055;SDS011;1033;52.560;13.374;2023-07-02T02:08:06;9.90;;;9.03;;
2055;SDS011;1033;52.560;13.374;2023-07-02T02:10:37;15.70;;;9.63;;
2055;SDS011;1033;52.560;13.374;2023-07-02T02:13:07;13.17;;;12.03;;
2055;SDS011;1033;52.560;13.374;2023-07-02T02:15:36;11.47;;;10.47;;
2055;SDS011;1033;52.560;13.374;2023-07-02T02:18:05;13.57;;;12.13;;
2055;SDS011;1033;52.560;13.374;2023-07-02T02:20:34;13.70;;;10.90;;
2055;SDS011;1033;52.560;13.374;2023-07-02T02:23:04;12.53;;;11.37;;
2055;SDS011;1033;52.560;13.374;2023-07-02T02:25:32;11.90;;;10.73;;
2055;SDS011;1033;52.560;13.374;2023-07-02T02:28:02;13.50;;;12.40;;
2055;SDS011;1033;52.560;13.374;2023-07-02T02:30:33;13.03;;;11.70;;
2055;SDS011;1033;52.560;13.374;2023-07-02T02:33:02;12.63;;;11.47;;
2055;SDS011;1033;52.560;13.374;2023-07-02T02:35:32;12.40;;;10.40;;
2055;SDS011;1033;52.560;13.374;2023-07-02T02:38:02;11.87;;;10.90;;
2055;SDS011;1033;52.560;13.374;2023-07-02T02:40:32;12.70;;;11.50;;
2055;SDS011;1033;52.560;13.374;2023-07-02T02:43:02;14.83;;;10.77;;
2055;SDS011;1033;52.560;13.374;2023-07-02T02:45:33;11.47;;;10.47;;
2055;SDS011;1033;52.560;13.374;2023-07-02T02:48:03;10.53;;;9.63;;
2055;SDS011;1033;52.560;13.374;2023-07-02T02:50:32;10.90;;;9.80;;
2055;SDS011;1033;52.560;13.374;2023-07-02T02:53:01;11.37;;;10.27;;
2055;SDS011;1033;52.560;13.374;2023-07-02T02:55:30;12.00;;;11.00;;
2055;SDS011;1033;52.560;13.374;2023-07-02T02:58:00;11.17;;;10.17;;
2055;SDS011;1033;52.560;13.374;2023-07-02T03:00:29;12.20;;;11.10;;
2055;SDS011;1033;52.560;13.374;2023-07-02T03:03:00;12.70;;;11.37;;
2055;SDS011;1033;52.560;13.374;2023-07-02T03:05:29;12.83;;;10.87;;
2055;SDS011;1033;52.560;13.374;2023-07-02T03:07:58;11.10;;;9.97;;
2055;SDS011;1033;52.560;13.374;2023-07-02T03:10:27;14.93;;;10.00;;
2055;SDS011;1033;52.560;13.374;2023-07-02T03:12:56;10.50;;;9.50;;
2055;SDS011;1033;52.560;13.374;2023-07-02T03:15:25;11.73;;;10.60;;
2055;SDS011;1033;52.560;13.374;2023-07-02T03:17:54;10.80;;;9.70;;
2055;SDS011;1033;52.560;13.374;2023-07-02T03:20:25;12.77;;;9.80;;
2055;SDS011;1033;52.560;13.374;2023-07-02T03:22:54;11.60;;;9.23;;
2055;SDS011;1033;52.560;13.374;2023-07-02T03:25:23;9.83;;;8.93;;
2055;SDS011;1033;52.560;13.374;2023-07-02T03:27:52;10.43;;;9.27;;
2055;SDS011;1033;52.560;13.374;2023-07-02T03:30:21;11.10;;;9.97;;
2055;SDS011;1033;52.560;13.374;2023-07-02T03:32:50;10.43;;;9.13;;
2055;SDS011;1033;52.560;13.374;2023-07-02T03:35:19;10.50;;;9.60;;
2055;SDS011;1033;52.560;13.374;2023-07-02T03:37:50;10.80;;;8.33;;
2055;SDS011;1033;52.560;13.374;2023-07-02T03:40:19;10.67;;;9.57;;
2055;SDS011;1033;52.560;13.374;2023-07-02T03:42:48;11.40;;;9.20;;
2055;SDS011;1033;52.560;13.374;2023-07-02T03:45:17;10.47;;;9.57;;
2055;SDS011;1033;52.560;13.374;2023-07-02T03:47:46;9.53;;;8.60;;
2055;SDS011;1033;52.560;13.374;2023-07-02T03:50:15;10.13;;;8.13;;
2055;SDS011;1033;52.560;13.374;2023-07-02T03:52:44;8.73;;;7.93;;
2055;SDS011;1033;52.560;13.374;2023-07-02T03:55:15;9.70;;;7.93;;
2055;SDS011;1033;52.560;13.374;2023-07-02T03:57:46;10.27;;;8.13;;
2055;SDS011;1033;52.560;13.374;2023-07-02T04:00:15;8.77;;;7.80;;
2055;SDS011;1033;52.560;13.374;2023-07-02T04:02:45;8.20;;;7.40;;
2055;SDS011;1033;52.560;13.374;2023-07-02T04:05:15;9.93;;;7.40;;
2055;SDS011;1033;52.560;13.374;2023-07-02T04:07:44;7.90;;;7.20;;
2055;SDS011;1033;52.560;13.374;2023-07-02T04:10:14;11.13;;;7.27;;
2055;SDS011;1033;52.560;13.374;2023-07-02T04:12:44;8.37;;;7.20;;
2055;SDS011;1033;52.560;13.374;2023-07-02T04:15:13;6.37;;;5.80;;
2055;SDS011;1033;52.560;13.374;2023-07-02T04:17:42;12.70;;;7.40;;
2055;SDS011;1033;52.560;13.374;2023-07-02T04:20:11;9.40;;;7.53;;
2055;SDS011;1033;52.560;13.374;2023-07-02T04:22:40;6.93;;;6.43;;
2055;SDS011;1033;52.560;13.374;2023-07-02T04:25:09;6.43;;;5.90;;
2055;SDS011;1033;52.560;13.374;2023-07-02T04:27:58;6.73;;;6.03;;
2055;SDS011;1033;52.560;13.374;2023-07-02T04:30:27;7.00;;;6.03;;
2055;SDS011;1033;52.560;13.374;2023-07-02T04:32:56;7.10;;;5.97;;
2055;SDS011;1033;52.560;13.374;2023-07-02T04:35:25;6.50;;;5.90;;
2055;SDS011;1033;52.560;13.374;2023-07-02T04:37:54;8.27;;;5.57;;
2055;SDS011;1033;52.560;13.374;2023-07-02T04:40:25;6.37;;;5.73;;
2055;SDS011;1033;52.560;13.374;2023-07-02T04:42:54;6.03;;;5.37;;
2055;SDS011;1033;52.560;13.374;2023-07-02T04:45:26;6.30;;;5.80;;
2055;SDS011;1033;52.560;13.374;2023-07-02T04:48:02;5.80;;;4.20;;
2055;SDS011;1033;52.560;13.374;2023-07-02T04:50:31;6.63;;;6.03;;
2055;SDS011;1033;52.560;13.374;2023-07-02T04:53:00;6.60;;;6.10;;
2055;SDS011;1033;52.560;13.374;2023-07-02T04:55:30;5.33;;;4.83;;
2055;SDS011;1033;52.560;13.374;2023-07-02T04:57:59;5.53;;;4.87;;
2055;SDS011;1033;52.560;13.374;2023-07-02T05:00:29;6.47;;;5.50;;
2055;SDS011;1033;52.560;13.374;2023-07-02T05:02:58;7.30;;;4.50;;
2055;SDS011;1033;52.560;13.374;2023-07-02T05:05:27;4.80;;;4.40;;
2055;SDS011;1033;52.560;13.374;2023-07-02T05:07:57;6.53;;;4.90;;
2055;SDS011;1033;52.560;13.374;2023-07-02T05:10:26;6.53;;;4.63;;
2055;SDS011;1033;52.560;13.374;2023-07-02T05:12:55;8.63;;;4.97;;
2055;SDS011;1033;52.560;13.374;2023-07-02T05:15:24;5.00;;;4.50;;
2055;SDS011;1033;52.560;13.374;2023-07-02T05:17:55;5.40;;;4.67;;
2055;SDS011;1033;52.560;13.374;2023-07-02T05:20:24;6.53;;;5.90;;
2055;SDS011;1033;52.560;13.374;2023-07-02T05:22:53;4.93;;;4.53;;
2055;SDS011;1033;52.560;13.374;2023-07-02T05:25:22;5.97;;;4.37;;
2055;SDS011;1033;52.560;13.374;2023-07-02T05:27:51;5.13;;;3.70;;
2055;SDS011;1033;52.560;13.374;2023-07-02T05:30:20;5.30;;;4.87;;
2055;SDS011;1033;52.560;13.374;2023-07-02T05:32:49;3.40;;;3.10;;
2055;SDS011;1033;52.560;13.374;2023-07-02T05:35:20;4.33;;;3.90;;
2055;SDS011;1033;52.560;13.374;2023-07-02T05:37:49;8.87;;;4.30;;
2055;SDS011;1033;52.560;13.374;2023-07-02T05:40:18;6.07;;;4.70;;
2055;SDS011;1033;52.560;13.374;2023-07-02T05:42:47;5.23;;;4.10;;
2055;SDS011;1033;52.560;13.374;2023-07-02T05:45:16;7.27;;;5.43;;
2055;SDS011;1033;52.560;13.374;2023-07-02T05:47:46;7.13;;;4.27;;
2055;SDS011;1033;52.560;13.374;2023-07-02T05:50:15;4.47;;;4.07;;
2055;SDS011;1033;52.560;13.374;2023-07-02T05:52:46;5.70;;;3.80;;
2055;SDS011;1033;52.560;13.374;2023-07-02T05:55:15;6.37;;;3.63;;
2055;SDS011;1033;52.560;13.374;2023-07-02T05:57:44;5.10;;;4.03;;
2055;SDS011;1033;52.560;13.374;2023-07-02T06:00:14;5.83;;;4.40;;
2055;SDS011;1033;52.560;13.374;2023-07-02T06:02:52;4.90;;;4.20;;
2055;SDS011;1033;52.560;13.374;2023-07-02T06:05:21;8.20;;;4.13;;
2055;SDS011;1033;52.560;13.374;2023-07-02T06:07:51;4.33;;;3.50;;
2055;SDS011;1033;52.560;13.374;2023-07-02T06:10:20;4.77;;;4.27;;
2055;SDS011;1033;52.560;13.374;2023-07-02T06:12:50;6.73;;;4.43;;
2055;SDS011;1033;52.560;13.374;2023-07-02T06:15:19;4.43;;;3.27;;
2055;SDS011;1033;52.560;13.374;2023-07-02T06:17:48;4.47;;;4.00;;
2055;SDS011;1033;52.560;13.374;2023-07-02T06:20:17;7.27;;;4.43;;
2055;SDS011;1033;52.560;13.374;2023-07-02T06:22:46;5.30;;;4.00;;
2055;SDS011;1033;52.560;13.374;2023-07-02T06:25:17;5.90;;;4.47;;
2055;SDS011;1033;52.560;13.374;2023-07-02T06:27:46;4.17;;;3.67;;
2055;SDS011;1033;52.560;13.374;2023-07-02T06:30:15;4.80;;;4.30;;
2055;SDS011;1033;52.560;13.374;2023-07-02T06:32:44;7.77;;;4.37;;
2055;SDS011;1033;52.560;13.374;2023-07-02T06:35:14;5.87;;;3.70;;
2055;SDS011;1033;52.560;13.374;2023-07-02T06:37:44;5.93;;;4.07;;
2055;SDS011;1033;52.560;13.374;2023-07-02T06:40:13;4.70;;;3.43;;
2055;SDS011;1033;52.560;13.374;2023-07-02T06:42:44;7.97;;;4.40;;
2055;SDS011;1033;52.560;13.374;2023-07-02T06:45:13;10.10;;;4.83;;
2055;SDS011;1033;52.560;13.374;2023-07-02T06:47:42;6.30;;;3.80;;
2055;SDS011;1033;52.560;13.374;2023-07-02T06:50:12;4.43;;;3.47;;
2055;SDS011;1033;52.560;13.374;2023-07-02T06:52:42;6.73;;;4.23;;
2055;SDS011;1033;52.560;13.374;2023-07-02T06:55:11;5.43;;;3.40;;
2055;SDS011;1033;52.560;13.374;2023-07-02T06:57:44;5.07;;;4.03;;
2055;SDS011;1033;52.560;13.374;2023-07-02T07:00:14;5.53;;;4.33;;
2055;SDS011;1033;52.560;13.374;2023-07-02T07:02:43;5.03;;;3.90;;
2055;SDS011;1033;52.560;13.374;2023-07-02T07:05:13;6.03;;;4.30;;
2055;SDS011;1033;52.560;13.374;2023-07-02T07:07:42;8.57;;;4.10;;
2055;SDS011;1033;52.560;13.374;2023-07-02T07:10:11;7.10;;;4.80;;
2055;SDS011;1033;52.560;13.374;2023-07-02T07:12:40;7.10;;;5.07;;
2055;SDS011;1033;52.560;13.374;2023-07-02T07:15:11;8.97;;;4.17;;
2055;SDS011;1033;52.560;13.374;2023-07-02T07:17:40;5.07;;;3.97;;
2055;SDS011;1033;52.560;13.374;2023-07-02T07:20:13;5.30;;;4.80;;
2055;SDS011;1033;52.560;13.374;2023-07-02T07:22:42;6.30;;;4.30;;
2055;SDS011;1033;52.560;13.374;2023-07-02T07:25:11;7.30;;;4.70;;
2055;SDS011;1033;52.560;13.374;2023-07-02T07:27:43;8.00;;;4.73;;
2055;SDS011;1033;52.560;13.374;2023-07-02T07:30:14;6.33;;;3.73;;
2055;SDS011;1033;52.560;13.374;2023-07-02T07:32:51;4.27;;;3.87;;
2055;SDS011;1033;52.560;13.374;2023-07-02T07:35:21;6.53;;;4.77;;
2055;SDS011;1033;52.560;13.374;2023-07-02T07:37:50;5.33;;;3.67;;
2055;SDS011;1033;52.560;13.374;2023-07-02T07:40:19;6.03;;;4.63;;
2055;SDS011;1033;52.560;13.374;2023-07-02T07:42:49;6.03;;;4.07;;
2055;SDS011;1033;52.560;13.374;2023-07-02T07:45:19;28.73;;;5.00;;
2055;SDS011;1033;52.560;13.374;2023-07-02T07:47:49;4.53;;;4.00;;
2055;SDS011;1033;52.560;13.374;2023-07-02T07:50:18;8.60;;;5.30;;
2055;SDS011;1033;52.560;13.374;2023-07-02T07:52:48;5.97;;;5.37;;
2055;SDS011;1033;52.560;13.374;2023-07-02T07:55:17;5.90;;;4.23;;
2055;SDS011;1033;52.560;13.374;2023-07-02T07:57:47;5.80;;;4.90;;
2055;SDS011;1033;52.560;13.374;2023-07-02T08:00:16;7.50;;;4.67;;
2055;SDS011;1033;52.560;13.374;2023-07-02T08:02:47;7.70;;;4.63;;
2055;SDS011;1033;52.560;13.374;2023-07-02T08:05:19;6.90;;;6.23;;
2055;SDS011;1033;52.560;13.374;2023-07-02T08:07:48;6.37;;;4.77;;
2055;SDS011;1033;52.560;13.374;2023-07-02T08:10:17;6.03;;;4.87;;
2055;SDS011;1033;52.560;13.374;2023-07-02T08:12:46;6.10;;;5.33;;
2055;SDS011;1033;52.560;13.374;2023-07-02T08:15:15;7.40;;;4.77;;
2055;SDS011;1033;52.560;13.374;2023-07-02T08:17:46;5.67;;;4.90;;
2055;SDS011;1033;52.560;13.374;2023-07-02T08:20:15;6.27;;;5.67;;
2055;SDS011;1033;52.560;13.374;2023-07-02T08:22:44;5.10;;;4.60;;
2055;SDS011;1033;52.560;13.374;2023-07-02T08:25:14;5.87;;;4.70;;
2055;SDS011;1033;52.560;13.374;2023-07-02T08:27:44;5.17;;;4.67;;
2055;SDS011;1033;52.560;13.374;2023-07-02T08:30:13;5.97;;;4.87;;
2055;SDS011;1033;52.560;13.374;2023-07-02T08:32:42;10.30;;;4.87;;
2055;SDS011;1033;52.560;13.374;2023-07-02T08:35:13;6.10;;;4.77;;
2055;SDS011;1033;52.560;13.374;2023-07-02T08:37:42;5.80;;;4.80;;
2055;SDS011;1033;52.560;13.374;2023-07-02T08:40:20;5.67;;;5.13;;
2055;SDS011;1033;52.560;13.374;2023-07-02T08:42:49;7.83;;;5.60;;
2055;SDS011;1033;52.560;13.374;2023-07-02T08:48:18;6.90;;;4.87;;
2055;SDS011;1033;52.560;13.374;2023-07-02T08:50:52;6.57;;;4.90;;
2055;SDS011;1033;52.560;13.374;2023-07-02T08:53:21;6.10;;;5.23;;
2055;SDS011;1033;52.560;13.374;2023-07-02T08:55:56;7.97;;;5.50;;
2055;SDS011;1033;52.560;13.374;2023-07-02T08:58:25;8.20;;;5.20;;
2055;SDS011;1033;52.560;13.374;2023-07-02T09:01:04;5.67;;;5.13;;
2055;SDS011;1033;52.560;13.374;2023-07-02T09:03:35;6.63;;;5.93;;
2055;SDS011;1033;52.560;13.374;2023-07-02T09:06:06;7.63;;;5.63;;
2055;SDS011;1033;52.560;13.374;2023-07-02T09:08:38;6.27;;;4.93;;
2055;SDS011;1033;52.560;13.374;2023-07-02T09:11:07;7.70;;;5.47;;
2055;SDS011;1033;52.560;13.374;2023-07-02T09:13:44;7.10;;;5.33;;
2055;SDS011;1033;52.560;13.374;2023-07-02T09:16:23;6.63;;;5.10;;
2055;SDS011;1033;52.560;13.374;2023-07-02T09:19:01;7.53;;;5.27;;
2055;SDS011;1033;52.560;13.374;2023-07-02T09:21:40;14.23;;;6.33;;
2055;SDS011;1033;52.560;13.374;2023-07-02T09:24:15;9.93;;;5.63;;
2055;SDS011;1033;52.560;13.374;2023-07-02T09:26:45;8.90;;;5.23;;
2055;SDS011;1033;52.560;13.374;2023-07-02T09:29:17;8.83;;;5.30;;
2055;SDS011;1033;52.560;13.374;2023-07-02T09:31:49;7.90;;;6.80;;
2055;SDS011;1033;52.560;13.374;2023-07-02T09:34:35;9.80;;;6.47;;
2055;SDS011;1033;52.560;13.374;2023-07-02T09:37:09;8.13;;;5.97;;
2055;SDS011;1033;52.560;13.374;2023-07-02T09:39:38;8.33;;;5.37;;
2055;SDS011;1033;52.560;13.374;2023-07-02T09:42:07;7.60;;;6.10;;
2055;SDS011;1033;52.560;13.374;2023-07-02T09:44:37;11.33;;;6.97;;
2055;SDS011;1033;52.560;13.374;2023-07-02T09:47:10;11.53;;;8.37;;
2055;SDS011;1033;52.560;13.374;2023-07-02T09:49:41;14.93;;;8.23;;
2055;SDS011;1033;52.560;13.374;2023-07-02T09:52:14;11.10;;;7.03;;
2055;SDS011;1033;52.560;13.374;2023-07-02T09:54:44;8.97;;;6.57;;
2055;SDS011;1033;52.560;13.374;2023-07-02T09:57:14;12.43;;;8.00;;
2055;SDS011;1033;52.560;13.374;2023-07-02T09:59:43;14.30;;;8.57;;
2055;SDS011;1033;52.560;13.374;2023-07-02T10:02:13;11.80;;;9.33;;
2055;SDS011;1033;52.560;13.374;2023-07-02T10:04:42;12.60;;;8.30;;
2055;SDS011;1033;52.560;13.374;2023-07-02T10:07:13;13.30;;;8.60;;
2055;SDS011;1033;52.560;13.374;2023-07-02T10:09:54;17.03;;;8.37;;
2055;SDS011;1033;52.560;13.374;2023-07-02T10:12:25;12.80;;;9.03;;
2055;SDS011;1033;52.560;13.374;2023-07-02T10:14:55;13.43;;;8.30;;
2055;SDS011;1033;52.560;13.374;2023-07-02T10:17:26;12.20;;;8.33;;
2055;SDS011;1033;52.560;13.374;2023-07-02T10:19:58;14.97;;;9.27;;
2055;SDS011;1033;52.560;13.374;2023-07-02T10:22:43;11.60;;;6.90;;
2055;SDS011;1033;52.560;13.374;2023-07-02T10:25:12;15.40;;;9.83;;
2055;SDS011;1033;52.560;13.374;2023-07-02T10:27:52;10.47;;;7.77;;
2055;SDS011;1033;52.560;13.374;2023-07-02T10:30:30;17.20;;;7.57;;
2055;SDS011;1033;52.560;13.374;2023-07-02T10:33:07;17.60;;;9.13;;
2055;SDS011;1033;52.560;13.374;2023-07-02T10:35:37;15.07;;;9.20;;
2055;SDS011;1033;52.560;13.374;2023-07-02T10:38:12;18.47;;;10.10;;
2055;SDS011;1033;52.560;13.374;2023-07-02T10:40:42;10.97;;;9.10;;
2055;SDS011;1033;52.560;13.374;2023-07-02T10:43:12;11.17;;;7.63;;
2055;SDS011;1033;52.560;13.374;2023-07-02T10:45:41;16.37;;;8.00;;
2055;SDS011;1033;52.560;13.374;2023-07-02T10:48:17;13.87;;;9.47;;
2055;SDS011;1033;52.560;13.374;2023-07-02T10:50:46;15.90;;;10.47;;
2055;SDS011;1033;52.560;13.374;2023-07-02T10:53:18;10.33;;;8.03;;
2055;SDS011;1033;52.560;13.374;2023-07-02T10:55:53;13.30;;;7.27;;
2055;SDS011;1033;52.560;13.374;2023-07-02T10:58:24;12.20;;;7.63;;
2055;SDS011;1033;52.560;13.374;2023-07-02T11:00:53;13.93;;;8.80;;
2055;SDS011;1033;52.560;13.374;2023-07-02T11:03:23;10.47;;;6.70;;
2055;SDS011;1033;52.560;13.374;2023-07-02T11:05:54;14.67;;;8.30;;
2055;SDS011;1033;52.560;13.374;2023-07-02T11:08:24;12.87;;;9.60;;
2055;SDS011;1033;52.560;13.374;2023-07-02T11:11:06;17.07;;;10.00;;
2055;SDS011;1033;52.560;13.374;2023-07-02T11:13:43;15.63;;;9.57;;
2055;SDS011;1033;52.560;13.374;2023-07-02T11:16:17;18.83;;;10.07;;
2055;SDS011;1033;52.560;13.374;2023-07-02T11:18:49;15.87;;;8.70;;
2055;SDS011;1033;52.560;13.374;2023-07-02T11:21:19;13.83;;;8.67;;
2055;SDS011;1033;52.560;13.374;2023-07-02T11:23:50;13.13;;;8.80;;
2055;SDS011;1033;52.560;13.374;2023-07-02T11:26:36;19.10;;;9.67;;
2055;SDS011;1033;52.560;13.374;2023-07-02T11:29:07;16.13;;;9.60;;
2055;SDS011;1033;52.560;13.374;2023-07-02T11:31:39;14.73;;;8.40;;
2055;SDS011;1033;52.560;13.374;2023-07-02T11:34:11;15.63;;;7.27;;
2055;SDS011;1033;52.560;13.374;2023-07-02T11:36:44;14.07;;;8.10;;
2055;SDS011;1033;52.560;13.374;2023-07-02T11:39:15;15.40;;;9.20;;
2055;SDS011;1033;52.560;13.374;2023-07-02T11:41:45;24.03;;;9.10;;
2055;SDS011;1033;52.560;13.374;2023-07-02T11:44:17;15.40;;;8.10;;
2055;SDS011;1033;52.560;13.374;2023-07-02T11:46:46;13.40;;;8.00;;
2055;SDS011;1033;52.560;13.374;2023-07-02T11:49:16;17.47;;;8.90;;
2055;SDS011;1033;52.560;13.374;2023-07-02T11:51:46;16.03;;;9.83;;
2055;SDS011;1033;52.560;13.374;2023-07-02T11:54:17;13.03;;;8.43;;
2055;SDS011;1033;52.560;13.374;2023-07-02T11:56:47;12.30;;;8.10;;
2055;SDS011;1033;52.560;13.374;2023-07-02T11:59:17;12.70;;;7.60;;
2055;SDS011;1033;52.560;13.374;2023-07-02T12:01:47;14.00;;;9.00;;
2055;SDS011;1033;52.560;13.374;2023-07-02T12:04:16;15.27;;;9.00;;
2055;SDS011;1033;52.560;13.374;2023-07-02T12:06:45;13.20;;;7.80;;
2055;SDS011;1033;52.560;13.374;2023-07-02T12:09:14;15.23;;;8.40;;
2055;SDS011;1033;52.560;13.374;2023-07-02T12:11:44;11.90;;;8.07;;
2055;SDS011;1033;52.560;13.374;2023-07-02T12:14:14;16.93;;;9.10;;
2055;SDS011;1033;52.560;13.374;2023-07-02T12:16:43;16.20;;;8.53;;
2055;SDS011;1033;52.560;13.374;2023-07-02T12:19:12;12.80;;;8.30;;
2055;SDS011;1033;52.560;13.374;2023-07-02T12:21:41;15.90;;;9.17;;
2055;SDS011;1033;52.560;13.374;2023-07-02T12:24:11;13.97;;;8.53;;
2055;SDS011;1033;52.560;13.374;2023-07-02T12:26:40;14.10;;;8.50;;
2055;SDS011;1033;52.560;13.374;2023-07-02T12:29:11;16.87;;;9.10;;
2055;SDS011;1033;52.560;13.374;2023-07-02T12:31:42;15.87;;;9.40;;
2055;SDS011;1033;52.560;13.374;2023-07-02T12:34:12;12.60;;;8.17;;
2055;SDS011;1033;52.560;13.374;2023-07-02T12:36:41;12.47;;;8.63;;
2055;SDS011;1033;52.560;13.374;2023-07-02T12:39:10;11.57;;;7.70;;
2055;SDS011;1033;52.560;13.374;2023-07-02T12:41:39;22.33;;;9.10;;
2055;SDS011;1033;52.560;13.374;2023-07-02T12:44:08;19.23;;;9.03;;
2055;SDS011;1033;52.560;13.374;2023-07-02T12:46:39;11.50;;;7.70;;
2055;SDS011;1033;52.560;13.374;2023-07-02T12:49:08;14.73;;;8.87;;
2055;SDS011;1033;52.560;13.374;2023-07-02T12:51:37;11.33;;;7.33;;
2055;SDS011;1033;52.560;13.374;2023-07-02T12:54:06;15.10;;;8.90;;
2055;SDS011;1033;52.560;13.374;2023-07-02T12:56:36;13.53;;;8.43;;
2055;SDS011;1033;52.560;13.374;2023-07-02T12:59:05;10.50;;;8.50;;
2055;SDS011;1033;52.560;13.374;2023-07-02T13:01:34;13.77;;;8.67;;
2055;SDS011;1033;52.560;13.374;2023-07-02T13:04:04;17.27;;;9.07;;
2055;SDS011;1033;52.560;13.374;2023-07-02T13:06:34;13.87;;;9.17;;
2055;SDS011;1033;52.560;13.374;2023-07-02T13:09:07;14.10;;;8.40;;
2055;SDS011;1033;52.560;13.374;2023-07-02T13:11:36;15.97;;;10.43;;
2055;SDS011;1033;52.560;13.374;2023-07-02T13:14:05;18.53;;;10.73;;
2055;SDS011;1033;52.560;13.374;2023-07-02T13:16:34;15.93;;;10.23;;
2055;SDS011;1033;52.560;13.374;2023-07-02T13:19:05;11.40;;;8.67;;
2055;SDS011;1033;52.560;13.374;2023-07-02T13:21:34;13.93;;;8.47;;
2055;SDS011;1033;52.560;13.374;2023-07-02T13:24:03;14.63;;;8.80;;
2055;SDS011;1033;52.560;13.374;2023-07-02T13:26:32;19.50;;;9.47;;
2055;SDS011;1033;52.560;13.374;2023-07-02T13:29:01;18.37;;;9.67;;
2055;SDS011;1033;52.560;13.374;2023-07-02T13:31:30;15.20;;;9.47;;
2055;SDS011;1033;52.560;13.374;2023-07-02T13:34:00;17.70;;;8.67;;
2055;SDS011;1033;52.560;13.374;2023-07-02T13:36:30;12.13;;;9.53;;
2055;SDS011;1033;52.560;13.374;2023-07-02T13:38:59;14.20;;;8.43;;
2055;SDS011;1033;52.560;13.374;2023-07-02T13:41:29;11.50;;;8.20;;
2055;SDS011;1033;52.560;13.374;2023-07-02T13:43:58;14.93;;;9.77;;
2055;SDS011;1033;52.560;13.374;2023-07-02T13:46:27;16.70;;;10.20;;
2055;SDS011;1033;52.560;13.374;2023-07-02T13:48:56;13.77;;;9.10;;
2055;SDS011;1033;52.560;13.374;2023-07-02T13:51:25;16.80;;;10.40;;
2055;SDS011;1033;52.560;13.374;2023-07-02T13:53:56;23.07;;;10.27;;
2055;SDS011;1033;52.560;13.374;2023-07-02T13:56:25;12.20;;;8.23;;
2055;SDS011;1033;52.560;13.374;2023-07-02T13:59:02;18.63;;;8.87;;
2055;SDS011;1033;52.560;13.374;2023-07-02T14:01:32;10.93;;;7.60;;
2055;SDS011;1033;52.560;13.374;2023-07-02T14:04:04;12.00;;;7.73;;
2055;SDS011;1033;52.560;13.374;2023-07-02T14:06:33;11.40;;;8.97;;
2055;SDS011;1033;52.560;13.374;2023-07-02T14:09:02;14.50;;;9.50;;
2055;SDS011;1033;52.560;13.374;2023-07-02T14:11:33;15.37;;;8.57;;
2055;SDS011;1033;52.560;13.374;2023-07-02T14:14:05;14.50;;;8.10;;
2055;SDS011;1033;52.560;13.374;2023-07-02T14:16:34;13.23;;;7.83;;
2055;SDS011;1033;52.560;13.374;2023-07-02T14:19:03;13.50;;;7.93;;
2055;SDS011;1033;52.560;13.374;2023-07-02T14:21:32;12.80;;;8.70;;
2055;SDS011;1033;52.560;13.374;2023-07-02T14:24:01;18.40;;;9.37;;
2055;SDS011;1033;52.560;13.374;2023-07-02T14:26:31;16.13;;;10.70;;
2055;SDS011;1033;52.560;13.374;2023-07-02T14:29:00;14.03;;;8.97;;
2055;SDS011;1033;52.560;13.374;2023-07-02T14:31:31;13.50;;;7.57;;
2055;SDS011;1033;52.560;13.374;2023-07-02T14:34:00;11.63;;;9.17;;
2055;SDS011;1033;52.560;13.374;2023-07-02T14:36:29;10.70;;;7.43;;
2055;SDS011;1033;52.560;13.374;2023-07-02T14:38:58;15.43;;;9.10;;
2055;SDS011;1033;52.560;13.374;2023-07-02T14:41:27;19.93;;;8.83;;
2055;SDS011;1033;52.560;13.374;2023-07-02T14:44:01;13.70;;;8.30;;
2055;SDS011;1033;52.560;13.374;2023-07-02T14:46:32;13.87;;;7.83;;
2055;SDS011;1033;52.560;13.374;2023-07-02T14:49:02;9.00;;;7.03;;
2055;SDS011;1033;52.560;13.374;2023-07-02T14:51:31;12.17;;;7.17;;
2055;SDS011;1033;52.560;13.374;2023-07-02T14:54:00;16.83;;;7.87;;
2055;SDS011;1033;52.560;13.374;2023-07-02T14:56:30;18.30;;;9.23;;
2055;SDS011;1033;52.560;13.374;2023-07-02T14:58:59;13.17;;;8.27;;
2055;SDS011;1033;52.560;13.374;2023-07-02T15:01:28;13.80;;;8.13;;
2055;SDS011;1033;52.560;13.374;2023-07-02T15:03:59;15.27;;;8.70;;
2055;SDS011;1033;52.560;13.374;2023-07-02T15:06:28;12.60;;;8.10;;
2055;SDS011;1033;52.560;13.374;2023-07-02T15:08:58;14.43;;;8.77;;
2055;SDS011;1033;52.560;13.374;2023-07-02T15:11:27;13.20;;;8.97;;
2055;SDS011;1033;52.560;13.374;2023-07-02T15:13:56;13.70;;;7.77;;